createdAt,value
2018-09-02T00:01:48.776Z,13.25
2018-09-02T00:04:17.066Z,15.75
2018-09-02T00:06:45.384Z,14.50
2018-09-02T00:09:13.698Z,13.50
2018-09-02T00:11:42.003Z,14.50
2018-09-02T00:14:11.292Z,14.00
2018-09-02T00:16:39.582Z,14.50
2018-09-02T00:19:07.850Z,16.25
2018-09-02T00:21:36.161Z,18.00
2018-09-02T00:24:04.486Z,15.50
2018-09-02T00:26:33.424Z,15.00
2018-09-02T00:29:01.719Z,15.50
2018-09-02T00:31:30.025Z,16.25
2018-09-02T00:33:58.406Z,14.00
2018-09-02T00:36:27.261Z,13.00
2018-09-02T00:38:55.601Z,13.50
2018-09-02T00:41:23.900Z,12.75
2018-09-02T00:43:52.822Z,15.00
2018-09-02T00:46:21.848Z,13.00
2018-09-02T00:48:50.658Z,15.50
2018-09-02T00:51:19.033Z,13.50
2018-09-02T00:53:48.188Z,13.00
2018-09-02T00:56:17.511Z,14.50
2018-09-02T00:58:45.785Z,14.00
2018-09-02T01:01:14.104Z,13.00
2018-09-02T01:03:42.442Z,15.50
2018-09-02T01:06:11.274Z,15.00
2018-09-02T01:08:40.589Z,13.00
2018-09-02T01:11:08.899Z,14.00
2018-09-02T01:13:37.180Z,12.25
2018-09-02T01:16:05.510Z,11.75
2018-09-02T01:18:34.155Z,13.50
2018-09-02T01:21:02.461Z,17.00
2018-09-02T01:23:30.746Z,15.00
2018-09-02T01:25:59.059Z,13.00
2018-09-02T01:28:27.427Z,14.00
2018-09-02T01:30:55.727Z,13.00
2018-09-02T01:33:24.089Z,11.50
2018-09-02T01:35:52.987Z,15.00
2018-09-02T01:38:21.274Z,13.00
2018-09-02T01:40:49.562Z,15.00
2018-09-02T01:43:18.532Z,12.25
2018-09-02T01:45:46.824Z,13.00
2018-09-02T01:48:15.782Z,14.00
2018-09-02T01:50:44.936Z,13.00
2018-09-02T01:53:13.962Z,13.50
2018-09-02T01:55:42.268Z,15.00
2018-09-02T01:58:10.606Z,12.25
2018-09-02T02:00:38.882Z,14.25
2018-09-02T02:03:07.239Z,13.75
2018-09-02T02:05:36.135Z,13.75
2018-09-02T02:08:04.473Z,12.00
2018-09-02T02:10:32.786Z,14.75
2018-09-02T02:13:01.076Z,14.50
2018-09-02T02:15:29.350Z,14.50
2018-09-02T02:17:57.632Z,15.00
2018-09-02T02:20:26.790Z,16.50
2018-09-02T02:22:55.892Z,13.75
2018-09-02T02:25:24.186Z,13.75
2018-09-02T02:27:52.457Z,12.25
2018-09-02T02:30:20.721Z,12.00
2018-09-02T02:32:49.131Z,14.50
2018-09-02T02:35:17.439Z,12.25
2018-09-02T02:37:45.752Z,14.75
2018-09-02T02:40:14.050Z,12.00
2018-09-02T02:42:42.330Z,13.25
2018-09-02T02:45:11.771Z,13.25
2018-09-02T02:47:40.952Z,18.00
2018-09-02T02:50:09.258Z,13.25
2018-09-02T02:52:42.737Z,12.00
2018-09-02T02:55:11.014Z,14.25
2018-09-02T02:57:39.324Z,12.00
2018-09-02T03:00:08.334Z,13.75
2018-09-02T03:02:36.672Z,14.75
2018-09-02T03:05:04.967Z,13.00
2018-09-02T03:07:33.706Z,13.75
2018-09-02T03:10:02.036Z,13.25
2018-09-02T03:12:30.320Z,12.00
2018-09-02T03:14:58.638Z,10.00
2018-09-02T03:17:26.929Z,12.00
2018-09-02T03:19:55.225Z,13.00
2018-09-02T03:22:23.512Z,12.00
2018-09-02T03:24:51.806Z,14.00
2018-09-02T03:27:20.759Z,13.75
2018-09-02T03:29:49.048Z,14.00
2018-09-02T03:32:17.347Z,13.75
2018-09-02T03:34:46.725Z,10.50
2018-09-02T03:37:15.432Z,12.00
2018-09-02T03:39:43.889Z,13.75
2018-09-02T03:42:13.101Z,10.00
2018-09-02T03:44:43.208Z,10.00
2018-09-02T03:47:12.074Z,12.75
2018-09-02T03:49:41.187Z,13.75
2018-09-02T03:52:09.457Z,11.50
2018-09-02T03:54:37.736Z,15.25
2018-09-02T03:57:06.061Z,10.50
2018-09-02T03:59:34.349Z,12.00
2018-09-02T04:02:04.122Z,13.00
2018-09-02T04:04:32.450Z,14.00
2018-09-02T04:07:00.740Z,13.50
2018-09-02T04:09:29.046Z,12.00
2018-09-02T04:11:57.340Z,12.00
2018-09-02T04:14:26.291Z,13.00
2018-09-02T04:16:54.605Z,13.50
2018-09-02T04:19:22.993Z,13.00
2018-09-02T04:21:51.307Z,12.00
2018-09-02T04:24:19.579Z,13.00
2018-09-02T04:26:48.646Z,12.00
2018-09-02T04:29:16.955Z,11.50
2018-09-02T04:31:45.880Z,12.00
2018-09-02T04:34:14.139Z,13.00
2018-09-02T04:36:42.454Z,14.75
2018-09-02T04:39:12.731Z,13.50
2018-09-02T04:41:41.846Z,12.00
2018-09-02T04:44:10.395Z,14.00
2018-09-02T04:46:38.726Z,11.00
2018-09-02T04:49:07.117Z,11.50
2018-09-02T04:51:35.427Z,11.00
2018-09-02T04:54:03.742Z,11.00
2018-09-02T04:56:32.370Z,14.00
2018-09-02T04:59:00.681Z,13.50
2018-09-02T05:01:29.732Z,14.00
2018-09-02T05:03:58.008Z,10.50
2018-09-02T05:06:26.306Z,10.00
2018-09-02T05:08:54.619Z,10.50
2018-09-02T05:11:22.920Z,12.00
2018-09-02T05:13:51.276Z,13.00
2018-09-02T05:16:19.672Z,11.00
2018-09-02T05:18:47.965Z,10.00
2018-09-02T05:21:16.856Z,13.00
2018-09-02T05:23:45.159Z,11.50
2018-09-02T05:26:13.463Z,12.50
2018-09-02T05:28:41.773Z,12.00
2018-09-02T05:31:10.055Z,13.50
2018-09-02T05:33:38.392Z,13.00
2018-09-02T05:36:07.139Z,12.00
2018-09-02T05:38:35.456Z,10.50
2018-09-02T05:41:03.752Z,10.00
2018-09-02T05:43:32.070Z,12.00
2018-09-02T05:46:00.374Z,10.50
2018-09-02T05:48:29.224Z,12.00
2018-09-02T05:50:57.504Z,12.00
2018-09-02T05:53:25.862Z,13.00
2018-09-02T05:55:54.154Z,12.00
2018-09-02T05:58:22.450Z,12.00
2018-09-02T06:00:50.752Z,11.50
2018-09-02T06:03:19.030Z,12.00
2018-09-02T06:05:47.299Z,13.00
2018-09-02T06:08:15.599Z,12.50
2018-09-02T06:10:44.772Z,13.00
2018-09-02T06:13:13.048Z,14.00
2018-09-02T06:15:42.164Z,12.75
2018-09-02T06:18:10.468Z,9.50
2018-09-02T06:20:38.778Z,10.00
2018-09-02T06:23:07.102Z,13.75
2018-09-02T06:25:36.018Z,11.50
2018-09-02T06:28:04.323Z,13.00
2018-09-02T06:30:32.701Z,12.00
2018-09-02T06:33:01.102Z,12.00
2018-09-02T06:35:29.410Z,13.50
2018-09-02T06:37:57.715Z,13.00
2018-09-02T06:40:25.988Z,14.00
2018-09-02T06:42:54.363Z,12.25
2018-09-02T06:45:22.728Z,13.00
2018-09-02T06:47:51.609Z,12.50
2018-09-02T06:50:19.929Z,13.00
2018-09-02T06:55:47.635Z,13.00
2018-09-02T06:58:15.967Z,12.50
2018-09-02T07:00:44.346Z,11.50
2018-09-02T07:03:17.365Z,13.50
2018-09-02T07:05:45.678Z,13.00
2018-09-02T07:08:14.123Z,13.50
2018-09-02T07:10:43.144Z,15.25
2018-09-02T07:13:11.538Z,13.50
2018-09-02T07:15:39.815Z,12.00
2018-09-02T07:18:08.251Z,15.25
2018-09-02T07:20:36.557Z,13.75
2018-09-02T07:23:05.356Z,15.50
2018-09-02T07:25:33.980Z,15.00
2018-09-02T07:28:02.341Z,16.50
2018-09-02T07:30:30.992Z,16.50
2018-09-02T07:32:59.362Z,14.25
2018-09-02T07:35:28.627Z,15.25
2018-09-02T07:37:56.891Z,14.75
2018-09-02T07:40:26.587Z,17.00
2018-09-02T07:42:54.871Z,14.75
2018-09-02T07:45:23.174Z,15.75
2018-09-02T07:47:52.381Z,14.00
2018-09-02T07:50:21.567Z,13.00
2018-09-02T07:52:51.256Z,14.50
2018-09-02T07:55:20.049Z,14.75
2018-09-02T07:57:48.358Z,16.00
2018-09-02T08:00:16.955Z,16.50
2018-09-02T08:02:45.400Z,15.00
2018-09-02T08:05:13.642Z,11.00
2018-09-02T08:07:41.942Z,15.00
2018-09-02T08:10:10.744Z,14.75
2018-09-02T08:12:39.359Z,15.50
2018-09-02T08:15:08.568Z,16.50
2018-09-02T08:17:38.688Z,14.00
2018-09-02T08:20:07.999Z,14.75
2018-09-02T08:22:37.603Z,9.75
2018-09-02T08:25:06.612Z,12.00
2018-09-02T08:27:35.053Z,11.50
2018-09-02T08:30:04.040Z,11.00
2018-09-02T08:32:32.685Z,11.00
2018-09-02T08:35:01.540Z,9.00
2018-09-02T08:37:29.871Z,13.50
2018-09-02T08:39:59.384Z,12.00
2018-09-02T08:42:30.405Z,14.25
2018-09-02T08:44:59.137Z,12.75
2018-09-02T08:47:27.534Z,9.00
2018-09-02T08:49:56.244Z,10.00
2018-09-02T08:52:24.588Z,13.25
2018-09-02T08:54:52.988Z,11.50
2018-09-02T08:57:21.285Z,8.50
2018-09-02T08:59:49.553Z,11.00
2018-09-02T09:02:18.612Z,11.00
2018-09-02T09:04:46.924Z,10.75
2018-09-02T09:07:16.573Z,11.00
2018-09-02T09:09:44.966Z,10.50
2018-09-02T09:12:13.304Z,12.00
2018-09-02T09:14:43.143Z,8.75
2018-09-02T09:17:11.827Z,11.25
2018-09-02T09:19:40.822Z,9.00
2018-09-02T09:22:09.104Z,8.50
2018-09-02T09:24:37.351Z,8.75
2018-09-02T09:27:05.679Z,9.00
2018-09-02T09:29:33.963Z,8.00
2018-09-02T09:32:02.262Z,9.00
2018-09-02T09:34:31.276Z,8.00
2018-09-02T09:36:59.602Z,6.00
2018-09-02T09:39:27.944Z,6.00
2018-09-02T09:41:56.221Z,6.25
2018-09-02T09:44:24.524Z,6.50
2018-09-02T09:46:52.806Z,6.50
2018-09-02T09:49:21.113Z,6.25
2018-09-02T09:51:49.418Z,6.00
2018-09-02T09:54:17.688Z,6.25
2018-09-02T09:56:45.979Z,6.75
2018-09-02T09:59:14.378Z,5.25
2018-09-02T10:01:42.698Z,4.50
2018-09-02T10:04:11.014Z,6.00
2018-09-02T10:06:39.283Z,3.00
2018-09-02T10:09:10.783Z,3.00
2018-09-02T10:11:39.146Z,6.00
2018-09-02T10:14:07.411Z,5.50
2018-09-02T10:16:35.731Z,3.50
2018-09-02T10:19:04.051Z,4.00
2018-09-02T10:21:32.361Z,3.00
2018-09-02T10:24:00.653Z,5.50
2018-09-02T10:26:28.914Z,3.75
2018-09-02T10:28:57.211Z,5.00
2018-09-02T10:31:26.672Z,4.00
2018-09-02T10:33:55.027Z,5.00
2018-09-02T10:36:23.402Z,4.00
2018-09-02T10:38:52.322Z,3.00
2018-09-02T10:41:20.626Z,3.50
2018-09-02T10:43:48.915Z,3.00
2018-09-02T10:46:17.285Z,3.00
2018-09-02T10:48:45.625Z,4.00
2018-09-02T10:51:14.835Z,4.00
2018-09-02T10:53:44.107Z,4.50
2018-09-02T10:56:12.407Z,4.00
2018-09-02T10:58:40.807Z,3.00
2018-09-02T11:01:09.191Z,3.00
2018-09-02T11:03:37.581Z,3.00
2018-09-02T11:06:07.100Z,3.00
2018-09-02T11:08:35.790Z,3.75
2018-09-02T11:11:04.052Z,4.00
2018-09-02T11:13:32.413Z,4.00
2018-09-02T11:16:00.712Z,4.00
2018-09-02T11:18:29.023Z,3.00
2018-09-02T11:20:57.324Z,3.00
2018-09-02T11:23:25.716Z,3.00
2018-09-02T11:25:55.933Z,3.25
2018-09-02T11:28:24.740Z,3.00
2018-09-02T11:30:53.087Z,4.00
2018-09-02T11:33:21.450Z,3.75
2018-09-02T11:35:49.815Z,3.00
2018-09-02T11:38:18.110Z,4.00
2018-09-02T11:40:46.390Z,5.75
2018-09-02T11:43:14.695Z,2.50
2018-09-02T11:45:42.998Z,2.75
2018-09-02T11:48:11.310Z,3.25
2018-09-02T11:50:39.579Z,4.00
2018-09-02T11:53:07.892Z,3.00
2018-09-02T11:55:36.292Z,3.75
2018-09-02T11:58:04.572Z,3.25
2018-09-02T12:00:32.886Z,4.00
2018-09-02T12:03:01.182Z,3.00
2018-09-02T12:05:29.472Z,3.25
2018-09-02T12:07:58.365Z,3.75
2018-09-02T12:10:26.624Z,3.75
2018-09-02T12:12:54.864Z,3.75
2018-09-02T12:15:25.799Z,4.00
2018-09-02T12:17:54.079Z,2.50
2018-09-02T12:20:22.402Z,3.00
2018-09-02T12:22:50.684Z,3.00
2018-09-02T12:25:18.985Z,4.00
2018-09-02T12:27:47.316Z,4.25
2018-09-02T12:30:15.627Z,4.25
2018-09-02T12:32:43.910Z,4.75
2018-09-02T12:35:12.688Z,4.00
2018-09-02T12:37:41.897Z,4.75
2018-09-02T12:40:10.293Z,4.00
2018-09-02T12:42:38.574Z,3.75
2018-09-02T12:45:07.103Z,3.00
2018-09-02T12:47:35.502Z,4.00
2018-09-02T12:50:03.734Z,4.00
2018-09-02T12:52:32.015Z,3.25
2018-09-02T12:55:00.292Z,3.75
2018-09-02T12:57:28.548Z,4.00
2018-09-02T12:59:56.818Z,3.00
2018-09-02T13:02:25.483Z,4.00
2018-09-02T13:04:54.460Z,4.50
2018-09-02T13:07:22.756Z,4.00
2018-09-02T13:09:51.014Z,4.00
2018-09-02T13:12:19.309Z,3.50
2018-09-02T13:14:47.575Z,4.00
2018-09-02T13:17:15.878Z,4.00
2018-09-02T13:19:44.270Z,4.00
2018-09-02T13:22:12.629Z,4.00
2018-09-02T13:24:40.910Z,3.50
2018-09-02T13:27:09.195Z,4.75
2018-09-02T13:29:37.522Z,5.00
2018-09-02T13:32:05.888Z,4.00
2018-09-02T13:34:34.293Z,4.75
2018-09-02T13:37:02.576Z,4.25
2018-09-02T13:39:30.845Z,4.00
2018-09-02T13:41:59.123Z,4.50
2018-09-02T13:44:28.041Z,4.00
2018-09-02T13:46:57.729Z,4.00
2018-09-02T13:49:27.022Z,4.50
2018-09-02T13:51:55.335Z,4.00
2018-09-02T13:54:23.618Z,3.75
2018-09-02T13:56:51.851Z,4.25
2018-09-02T13:59:20.127Z,4.25
2018-09-02T14:01:49.321Z,3.25
2018-09-02T14:04:18.678Z,4.00
2018-09-02T14:06:46.978Z,4.75
2018-09-02T14:09:15.265Z,4.00
2018-09-02T14:11:43.559Z,5.00
2018-09-02T14:14:12.795Z,5.00
2018-09-02T14:16:41.072Z,3.75
2018-09-02T14:19:09.856Z,4.25
2018-09-02T14:21:38.137Z,4.00
2018-09-02T14:24:06.716Z,4.50
2018-09-02T14:26:35.543Z,4.00
2018-09-02T14:29:03.835Z,4.00
2018-09-02T14:31:32.125Z,5.00
2018-09-02T14:34:03.143Z,4.00
2018-09-02T14:36:31.458Z,4.25
2018-09-02T14:39:01.806Z,4.75
2018-09-02T14:41:30.072Z,3.75
2018-09-02T14:43:58.370Z,5.00
2018-09-02T14:46:27.073Z,4.50
2018-09-02T14:48:55.378Z,4.00
2018-09-02T14:51:23.666Z,4.00
2018-09-02T14:53:52.922Z,4.00
2018-09-02T14:56:21.214Z,5.00
2018-09-02T14:58:49.512Z,3.25
2018-09-02T15:01:17.812Z,6.00
2018-09-02T15:03:46.583Z,5.75
2018-09-02T15:06:15.696Z,4.75
2018-09-02T15:08:44.024Z,3.75
2018-09-02T15:11:12.339Z,5.00
2018-09-02T15:13:40.631Z,3.75
2018-09-02T15:16:09.128Z,5.25
2018-09-02T15:18:37.482Z,5.00
2018-09-02T15:21:05.859Z,5.25
2018-09-02T15:23:34.200Z,5.00
2018-09-02T15:26:02.548Z,5.00
2018-09-02T15:28:30.958Z,4.50
2018-09-02T15:30:59.679Z,5.00
2018-09-02T15:33:28.543Z,5.00
2018-09-02T15:35:56.923Z,4.00
2018-09-02T15:38:25.302Z,6.00
2018-09-02T15:40:53.932Z,5.00
2018-09-02T15:43:22.291Z,4.25
2018-09-02T15:45:50.580Z,4.00
2018-09-02T15:48:18.889Z,4.00
2018-09-02T15:50:48.336Z,5.00
2018-09-02T15:53:16.756Z,4.50
2018-09-02T15:55:47.563Z,5.00
2018-09-02T15:58:17.312Z,5.00
2018-09-02T16:00:46.200Z,5.75
2018-09-02T16:03:14.537Z,3.75
2018-09-02T16:05:42.859Z,5.75
2018-09-02T16:08:11.442Z,7.00
2018-09-02T16:10:39.781Z,3.75
2018-09-02T16:13:08.929Z,4.00
2018-09-02T16:15:37.939Z,5.00
2018-09-02T16:18:06.885Z,6.00
2018-09-02T16:20:35.195Z,4.00
2018-09-02T16:23:07.627Z,4.00
2018-09-02T16:25:35.957Z,4.00
2018-09-02T16:28:05.061Z,5.50
2018-09-02T16:30:33.919Z,6.00
2018-09-02T16:33:03.056Z,6.00
2018-09-02T16:35:33.481Z,5.50
2018-09-02T16:38:03.163Z,6.00
2018-09-02T16:40:31.496Z,4.00
2018-09-02T16:43:00.847Z,5.50
2018-09-02T16:45:29.173Z,4.50
2018-09-02T16:47:57.460Z,5.00
2018-09-02T16:50:26.452Z,4.00
2018-09-02T16:52:54.795Z,4.00
2018-09-02T16:55:23.089Z,6.00
2018-09-02T16:57:52.184Z,4.50
2018-09-02T17:00:20.523Z,4.00
2018-09-02T17:02:48.852Z,4.50
2018-09-02T17:05:21.396Z,4.00
2018-09-02T17:07:50.214Z,6.00
2018-09-02T17:10:18.615Z,6.00
2018-09-02T17:12:46.940Z,3.75
2018-09-02T17:15:15.231Z,3.00
2018-09-02T17:17:43.601Z,6.00
2018-09-02T17:20:17.592Z,4.75
2018-09-02T17:22:45.896Z,5.25
2018-09-02T17:25:14.223Z,4.75
2018-09-02T17:27:44.451Z,4.75
2018-09-02T17:30:12.754Z,6.00
2018-09-02T17:32:41.544Z,5.25
2018-09-02T17:35:09.848Z,5.00
2018-09-02T17:37:38.138Z,6.00
2018-09-02T17:40:06.453Z,5.00
2018-09-02T17:42:34.790Z,5.00
2018-09-02T17:45:03.062Z,5.00
2018-09-02T17:47:31.375Z,6.00
2018-09-02T17:50:00.102Z,6.00
2018-09-02T17:52:28.411Z,5.75
2018-09-02T17:54:56.755Z,5.00
2018-09-02T17:57:25.026Z,3.00
2018-09-02T17:59:53.301Z,4.50
2018-09-02T18:02:21.747Z,5.00
2018-09-02T18:04:50.683Z,6.00
2018-09-02T18:07:20.027Z,4.50
2018-09-02T18:09:48.315Z,5.00
2018-09-02T18:12:16.610Z,5.00
2018-09-02T18:14:44.889Z,5.75
2018-09-02T18:17:13.394Z,5.00
2018-09-02T18:19:42.567Z,5.00
2018-09-02T18:22:10.860Z,5.50
2018-09-02T18:24:40.182Z,3.50
2018-09-02T18:27:09.240Z,6.00
2018-09-02T18:29:37.576Z,3.00
2018-09-02T18:32:05.997Z,6.00
2018-09-02T18:34:34.249Z,6.00
2018-09-02T18:37:02.532Z,5.00
2018-09-02T18:39:30.876Z,5.75
2018-09-02T18:41:59.125Z,5.00
2018-09-02T18:44:27.417Z,6.00
2018-09-02T18:46:56.220Z,6.00
2018-09-02T18:49:24.528Z,7.00
2018-09-02T18:51:54.375Z,5.50
2018-09-02T18:54:22.726Z,6.00
2018-09-02T18:56:51.032Z,6.00
2018-09-02T18:59:19.356Z,5.00
2018-09-02T19:01:47.706Z,6.00
2018-09-02T19:04:17.036Z,7.50
2018-09-02T19:06:45.304Z,6.00
2018-09-02T19:09:13.606Z,6.50
2018-09-02T19:11:41.924Z,8.25
2018-09-02T19:14:10.202Z,7.00
2018-09-02T19:16:38.516Z,8.00
2018-09-02T19:19:06.786Z,7.50
2018-09-02T19:21:35.984Z,6.50
2018-09-02T19:24:05.078Z,8.00
2018-09-02T19:26:34.049Z,6.00
2018-09-02T19:29:02.367Z,6.50
2018-09-02T19:31:30.694Z,7.00
2018-09-02T19:33:59.059Z,5.00
2018-09-02T19:36:27.343Z,8.00
2018-09-02T19:38:55.869Z,7.50
2018-09-02T19:41:24.158Z,7.50
2018-09-02T19:43:53.203Z,8.25
2018-09-02T19:46:21.767Z,6.75
2018-09-02T19:48:50.017Z,8.25
2018-09-02T19:51:18.816Z,8.00
2018-09-02T19:53:47.140Z,7.25
2018-09-02T19:56:15.461Z,8.00
2018-09-02T19:58:43.770Z,8.00
2018-09-02T20:01:12.041Z,8.00
2018-09-02T20:03:40.996Z,8.25
2018-09-02T20:06:09.268Z,7.75
2018-09-02T20:08:37.570Z,7.00
2018-09-02T20:11:05.871Z,8.25
2018-09-02T20:13:34.965Z,7.00
2018-09-02T20:16:03.265Z,9.00
2018-09-02T20:18:31.559Z,9.50
2018-09-02T20:20:59.831Z,9.75
2018-09-02T20:23:28.339Z,8.00
2018-09-02T20:25:56.638Z,9.25
2018-09-02T20:28:24.935Z,8.75
2018-09-02T20:30:53.248Z,7.25
2018-09-02T20:33:21.551Z,8.00
2018-09-02T20:35:51.155Z,9.00
2018-09-02T20:38:19.463Z,10.25
2018-09-02T20:40:47.766Z,10.00
2018-09-02T20:43:16.079Z,10.00
2018-09-02T20:45:44.900Z,11.00
2018-09-02T20:48:13.859Z,12.00
2018-09-02T20:50:43.152Z,11.00
2018-09-02T20:53:12.439Z,11.25
2018-09-02T20:55:40.862Z,11.50
2018-09-02T20:58:09.146Z,11.00
2018-09-02T21:00:37.456Z,10.50
2018-09-02T21:03:05.777Z,15.25
2018-09-02T21:05:34.094Z,13.50
2018-09-02T21:08:02.387Z,18.75
2018-09-02T21:10:30.682Z,16.00
2018-09-02T21:12:59.019Z,16.00
2018-09-02T21:15:28.277Z,13.00
2018-09-02T21:17:56.579Z,13.25
2018-09-02T21:20:24.913Z,13.75
2018-09-02T21:22:53.189Z,13.00
2018-09-02T21:25:21.499Z,14.00
2018-09-02T21:27:49.796Z,13.25
2018-09-02T21:30:18.096Z,11.00
2018-09-02T21:32:46.455Z,12.50
2018-09-02T21:35:14.812Z,14.50
2018-09-02T21:37:43.116Z,12.00
2018-09-02T21:40:11.431Z,13.00
2018-09-02T21:42:39.720Z,13.00
2018-09-02T21:45:08.132Z,13.75
2018-09-02T21:47:36.461Z,15.25
2018-09-02T21:50:05.179Z,12.75
2018-09-02T21:52:33.510Z,14.25
2018-09-02T21:55:01.810Z,15.50
2018-09-02T21:57:32.954Z,13.75
2018-09-02T22:00:02.135Z,14.50
2018-09-02T22:02:30.427Z,15.50
2018-09-02T22:04:58.734Z,14.75
2018-09-02T22:07:27.037Z,17.25
2018-09-02T22:09:55.343Z,16.00
2018-09-02T22:12:23.632Z,14.75
2018-09-02T22:14:51.925Z,15.50
2018-09-02T22:17:20.239Z,14.75
2018-09-02T22:19:48.552Z,15.50
2018-09-02T22:22:16.868Z,15.75
2018-09-02T22:24:45.144Z,15.75
2018-09-02T22:27:13.440Z,17.00
2018-09-02T22:29:41.765Z,16.50
2018-09-02T22:32:10.062Z,15.75
2018-09-02T22:34:38.351Z,15.25
2018-09-02T22:37:06.706Z,15.25
2018-09-02T22:39:35.111Z,17.00
2018-09-02T22:42:03.416Z,15.25
2018-09-02T22:44:31.728Z,16.00
2018-09-02T22:47:00.017Z,16.00
2018-09-02T22:49:28.287Z,15.50
2018-09-02T22:51:56.606Z,15.75
2018-09-02T22:54:24.919Z,14.75
2018-09-02T22:56:53.250Z,16.50
2018-09-02T22:59:22.662Z,15.00
2018-09-02T23:01:50.997Z,16.00
2018-09-02T23:04:19.282Z,14.25
2018-09-02T23:06:47.583Z,16.25
2018-09-02T23:09:15.879Z,16.00
2018-09-02T23:11:44.183Z,16.00
2018-09-02T23:14:12.456Z,15.75
2018-09-02T23:16:40.770Z,17.25
2018-09-02T23:19:09.076Z,16.50
2018-09-02T23:21:38.838Z,16.75
2018-09-02T23:24:07.151Z,19.00
2018-09-02T23:26:35.435Z,18.00
2018-09-02T23:29:03.774Z,15.75
2018-09-02T23:31:32.055Z,15.75
2018-09-02T23:34:00.366Z,13.00
2018-09-02T23:36:28.651Z,15.50
2018-09-02T23:38:57.192Z,15.75
2018-09-02T23:41:25.498Z,15.50
2018-09-02T23:43:54.594Z,15.50
2018-09-02T23:46:22.914Z,16.25
2018-09-02T23:48:51.211Z,15.50
2018-09-02T23:51:19.527Z,18.25
2018-09-02T23:53:47.847Z,15.25
2018-09-02T23:56:18.014Z,16.00
2018-09-02T23:58:46.309Z,15.25
